createdAt,value
2023-12-30T00:00:17.718Z,0
2023-12-30T00:02:16.323Z,0
2023-12-30T00:03:16.355Z,0
2023-12-30T00:05:16.326Z,0
2023-12-30T00:06:16.349Z,0
2023-12-30T00:07:16.352Z,0
2023-12-30T00:08:16.352Z,0
2023-12-30T00:09:16.350Z,0
2023-12-30T00:11:16.332Z,0
2023-12-30T00:12:16.350Z,0
2023-12-30T00:14:16.357Z,0
2023-12-30T00:15:16.332Z,0
2023-12-30T00:16:16.368Z,0
2023-12-30T00:17:16.631Z,0
2023-12-30T00:18:19.776Z,0
2023-12-30T00:19:22.882Z,0
2023-12-30T00:21:16.585Z,0
2023-12-30T00:22:16.349Z,0
2023-12-30T00:23:16.324Z,0
2023-12-30T00:24:16.314Z,0
2023-12-30T00:25:16.397Z,0
2023-12-30T00:27:16.342Z,0
2023-12-30T00:28:16.345Z,0
2023-12-30T00:29:16.338Z,0
2023-12-30T00:30:16.522Z,0
2023-12-30T00:32:16.356Z,0
2023-12-30T00:34:16.487Z,0
2023-12-30T00:36:16.317Z,0
2023-12-30T00:37:16.330Z,0
2023-12-30T00:38:23.792Z,0
2023-12-30T00:39:19.762Z,0
2023-12-30T00:40:26.248Z,0
2023-12-30T00:42:16.504Z,0
2023-12-30T00:44:16.332Z,0
2023-12-30T00:45:16.330Z,0
2023-12-30T00:47:16.331Z,0
2023-12-30T00:48:16.384Z,0
2023-12-30T00:49:16.571Z,0
2023-12-30T00:50:16.331Z,0
2023-12-30T00:51:16.364Z,0
2023-12-30T00:52:16.332Z,0
2023-12-30T00:53:16.323Z,0
2023-12-30T00:54:16.324Z,0
2023-12-30T00:55:16.362Z,0
2023-12-30T00:57:16.330Z,0
2023-12-30T00:58:16.392Z,0
2023-12-30T00:59:16.771Z,0
2023-12-30T01:00:19.835Z,0
2023-12-30T01:01:23.177Z,0
2023-12-30T01:03:16.737Z,0
2023-12-30T01:05:16.389Z,0
2023-12-30T01:07:16.391Z,0
2023-12-30T01:08:16.344Z,0
2023-12-30T01:09:16.340Z,0
2023-12-30T01:10:16.369Z,0
2023-12-30T01:12:16.321Z,0
2023-12-30T01:13:16.333Z,0
2023-12-30T01:14:16.336Z,0
2023-12-30T01:16:16.365Z,0
2023-12-30T01:17:16.459Z,0
2023-12-30T01:19:16.430Z,0
2023-12-30T01:20:16.792Z,0
2023-12-30T01:21:19.905Z,0
2023-12-30T01:22:22.944Z,0
2023-12-30T01:24:16.506Z,0
2023-12-30T01:26:16.342Z,0
2023-12-30T01:28:16.402Z,0
2023-12-30T01:29:16.312Z,0
2023-12-30T01:30:16.334Z,0
2023-12-30T01:31:16.438Z,0
2023-12-30T01:33:16.371Z,0
2023-12-30T01:34:16.397Z,0
2023-12-30T01:35:16.327Z,0
2023-12-30T01:36:16.335Z,0
2023-12-30T01:38:16.317Z,0
2023-12-30T01:39:16.358Z,0
2023-12-30T01:41:16.932Z,0
2023-12-30T01:42:20.028Z,0
2023-12-30T01:43:23.408Z,0
2023-12-30T01:45:16.329Z,0
2023-12-30T01:46:16.397Z,0
2023-12-30T01:47:16.360Z,0
2023-12-30T01:48:16.440Z,0
2023-12-30T01:50:16.340Z,0
2023-12-30T01:51:23.486Z,0
2023-12-30T01:52:16.358Z,0
2023-12-30T01:53:16.381Z,0
2023-12-30T01:55:16.442Z,0
2023-12-30T01:57:16.347Z,0
2023-12-30T01:58:16.372Z,0
2023-12-30T02:00:16.333Z,0
2023-12-30T02:01:16.405Z,0
2023-12-30T02:02:17.168Z,0
2023-12-30T02:03:20.188Z,0
2023-12-30T02:04:23.138Z,0
2023-12-30T02:06:16.324Z,0
2023-12-30T02:07:16.371Z,0
2023-12-30T02:08:16.345Z,0
2023-12-30T02:10:16.375Z,0
2023-12-30T02:11:16.346Z,0
2023-12-30T02:12:16.347Z,0
2023-12-30T02:14:16.318Z,0
2023-12-30T02:15:16.358Z,0
2023-12-30T02:16:16.363Z,0
2023-12-30T02:17:16.343Z,0
2023-12-30T02:18:16.419Z,0
2023-12-30T02:19:16.396Z,0
2023-12-30T02:20:16.339Z,0
2023-12-30T02:21:16.341Z,0
2023-12-30T02:22:16.368Z,0
2023-12-30T02:23:16.325Z,0
2023-12-30T02:24:16.333Z,0
2023-12-30T02:25:17.668Z,0
2023-12-30T02:26:20.677Z,0
2023-12-30T02:27:23.462Z,0
2023-12-30T02:29:16.331Z,0
2023-12-30T02:30:16.343Z,0
2023-12-30T02:31:16.376Z,0
2023-12-30T02:32:16.360Z,0
2023-12-30T02:34:16.456Z,0
2023-12-30T02:36:16.331Z,0
2023-12-30T02:37:16.361Z,0
2023-12-30T02:38:16.333Z,0
2023-12-30T02:40:16.331Z,0
2023-12-30T02:41:16.323Z,0
2023-12-30T02:42:16.349Z,0
2023-12-30T02:43:16.347Z,0
2023-12-30T02:44:16.328Z,0
2023-12-30T02:45:16.356Z,0
2023-12-30T02:46:17.640Z,0
2023-12-30T02:47:20.942Z,0
2023-12-30T02:49:16.568Z,0
2023-12-30T02:50:16.330Z,0
2023-12-30T02:51:16.331Z,0
2023-12-30T02:52:16.366Z,0
2023-12-30T02:53:16.503Z,0
2023-12-30T02:55:16.364Z,0
2023-12-30T02:56:16.336Z,0
2023-12-30T02:57:16.325Z,0
2023-12-30T02:58:16.499Z,0
2023-12-30T03:00:16.391Z,0
2023-12-30T03:01:16.344Z,0
2023-12-30T03:02:16.318Z,0
2023-12-30T03:03:16.340Z,0
2023-12-30T03:05:16.465Z,0
2023-12-30T03:07:17.736Z,0
2023-12-30T03:08:20.867Z,0
2023-12-30T03:10:16.408Z,0
2023-12-30T03:11:16.352Z,0
2023-12-30T03:12:16.317Z,0
2023-12-30T03:13:16.359Z,0
2023-12-30T03:14:16.546Z,0
2023-12-30T03:16:16.376Z,0
2023-12-30T03:17:16.327Z,0
2023-12-30T03:18:16.442Z,0
2023-12-30T03:20:16.328Z,0
2023-12-30T03:21:16.322Z,0
2023-12-30T03:22:16.341Z,0
2023-12-30T03:23:16.356Z,0
2023-12-30T03:25:16.373Z,0
2023-12-30T03:26:16.337Z,0
2023-12-30T03:27:16.333Z,0
2023-12-30T03:28:18.101Z,0
2023-12-30T03:29:20.891Z,0
2023-12-30T03:31:16.340Z,0
2023-12-30T03:32:16.333Z,0
2023-12-30T03:33:16.364Z,0
2023-12-30T03:34:16.398Z,0
2023-12-30T03:35:16.572Z,0
2023-12-30T03:37:16.371Z,0
2023-12-30T03:38:16.337Z,0
2023-12-30T03:39:16.354Z,0
2023-12-30T03:41:16.323Z,0
2023-12-30T03:42:16.335Z,0
2023-12-30T03:43:16.421Z,0
2023-12-30T03:44:16.350Z,0
2023-12-30T03:46:16.382Z,0
2023-12-30T03:48:16.443Z,0
2023-12-30T03:49:18.067Z,0
2023-12-30T03:50:20.974Z,0
2023-12-30T03:52:16.348Z,0
2023-12-30T03:53:16.326Z,0
2023-12-30T03:54:16.325Z,0
2023-12-30T03:55:16.322Z,0
2023-12-30T03:56:16.510Z,0
2023-12-30T03:58:16.343Z,0
2023-12-30T03:59:16.320Z,0
2023-12-30T04:00:16.320Z,0
2023-12-30T04:02:16.356Z,0
2023-12-30T04:03:16.356Z,0
2023-12-30T04:04:16.344Z,0
2023-12-30T04:06:16.319Z,0
2023-12-30T04:07:16.323Z,0
2023-12-30T04:08:16.332Z,0
2023-12-30T04:09:16.333Z,0
2023-12-30T04:10:18.098Z,0
2023-12-30T04:11:21.188Z,0
2023-12-30T04:13:16.356Z,0
2023-12-30T04:14:16.323Z,0
2023-12-30T04:15:16.333Z,0
2023-12-30T04:16:16.354Z,0
2023-12-30T04:17:16.330Z,0
2023-12-30T04:18:16.382Z,0
2023-12-30T04:19:16.417Z,0
2023-12-30T04:20:16.414Z,0
2023-12-30T04:22:16.494Z,0
2023-12-30T04:23:16.682Z,0
2023-12-30T04:24:16.659Z,0
2023-12-30T04:25:16.810Z,0
2023-12-30T04:27:16.333Z,0
2023-12-30T04:28:16.471Z,0
2023-12-30T04:30:16.354Z,0
2023-12-30T04:31:18.412Z,0
2023-12-30T04:32:21.367Z,0
2023-12-30T04:34:16.375Z,0
2023-12-30T04:35:16.365Z,0
2023-12-30T04:36:16.370Z,0
2023-12-30T04:38:16.412Z,0
2023-12-30T04:39:16.330Z,0
2023-12-30T04:41:16.345Z,0
2023-12-30T04:42:16.342Z,0
2023-12-30T04:43:16.349Z,0
2023-12-30T04:44:16.331Z,0
2023-12-30T04:45:16.324Z,0
2023-12-30T04:46:16.353Z,0
2023-12-30T04:47:16.329Z,0
2023-12-30T04:48:16.475Z,0
2023-12-30T04:50:16.329Z,0
2023-12-30T04:51:16.334Z,0
2023-12-30T04:52:18.540Z,0
2023-12-30T04:53:21.355Z,0
2023-12-30T04:55:16.355Z,0
2023-12-30T04:56:16.343Z,0
2023-12-30T04:58:16.358Z,0
2023-12-30T05:00:16.856Z,0
2023-12-30T05:01:16.446Z,0
2023-12-30T05:02:16.327Z,0
2023-12-30T05:03:16.362Z,0
2023-12-30T05:04:16.360Z,0
2023-12-30T05:05:16.381Z,0
2023-12-30T05:06:16.332Z,0
2023-12-30T05:08:16.340Z,0
2023-12-30T05:09:16.507Z,0
2023-12-30T05:11:16.363Z,0
2023-12-30T05:13:16.399Z,0
2023-12-30T05:14:16.347Z,0
2023-12-30T05:15:19.039Z,0
2023-12-30T05:16:21.671Z,0
2023-12-30T05:18:16.395Z,0
2023-12-30T05:19:16.413Z,0
2023-12-30T05:20:16.332Z,0
2023-12-30T05:21:16.324Z,0
2023-12-30T05:22:16.335Z,0
2023-12-30T05:23:16.319Z,0
2023-12-30T05:24:16.320Z,0
2023-12-30T05:25:16.349Z,0
2023-12-30T05:26:16.326Z,0
2023-12-30T05:27:16.330Z,0
2023-12-30T05:28:16.367Z,0
2023-12-30T05:29:16.328Z,0
2023-12-30T05:30:16.342Z,0
2023-12-30T05:31:16.349Z,0
2023-12-30T05:32:16.328Z,0
2023-12-30T05:33:16.393Z,0
2023-12-30T05:35:16.326Z,0
2023-12-30T05:36:18.817Z,0
2023-12-30T05:37:21.721Z,0
2023-12-30T05:39:16.327Z,0
2023-12-30T05:40:16.351Z,0
2023-12-30T05:41:16.328Z,0
2023-12-30T05:42:16.324Z,0
2023-12-30T05:43:16.381Z,0
2023-12-30T05:44:16.321Z,0
2023-12-30T05:45:16.329Z,0
2023-12-30T05:46:16.437Z,0
2023-12-30T05:48:16.401Z,0
2023-12-30T05:49:16.416Z,0
2023-12-30T05:50:16.340Z,0
2023-12-30T05:51:16.344Z,0
2023-12-30T05:53:16.335Z,0
2023-12-30T05:55:16.330Z,0
2023-12-30T05:56:16.326Z,0
2023-12-30T05:57:18.981Z,0
2023-12-30T05:58:21.839Z,0
2023-12-30T05:59:16.313Z,0
2023-12-30T06:00:16.315Z,0
2023-12-30T06:01:16.390Z,0
2023-12-30T06:02:16.322Z,0
2023-12-30T06:03:16.343Z,0
2023-12-30T06:04:16.462Z,0
2023-12-30T06:05:16.335Z,0
2023-12-30T06:06:16.340Z,0
2023-12-30T06:07:16.444Z,0
2023-12-30T06:09:16.322Z,0
2023-12-30T06:10:16.336Z,0
2023-12-30T06:11:16.328Z,0
2023-12-30T06:12:16.334Z,0
2023-12-30T06:14:16.360Z,0
2023-12-30T06:15:16.329Z,0
2023-12-30T06:16:16.348Z,0
2023-12-30T06:17:16.360Z,0
2023-12-30T06:18:19.140Z,0
2023-12-30T06:19:21.909Z,0
2023-12-30T06:21:16.338Z,0
2023-12-30T06:22:16.370Z,0
2023-12-30T06:23:16.370Z,0
2023-12-30T06:24:16.325Z,0
2023-12-30T06:25:16.354Z,0
2023-12-30T06:26:16.335Z,0
2023-12-30T06:27:16.341Z,0
2023-12-30T06:28:16.572Z,0
2023-12-30T06:30:16.365Z,0
2023-12-30T06:31:16.367Z,0
2023-12-30T06:32:16.350Z,0
2023-12-30T06:33:16.406Z,0
2023-12-30T06:35:16.327Z,0
2023-12-30T06:36:16.320Z,0
2023-12-30T06:37:16.372Z,0
2023-12-30T06:39:19.084Z,0
2023-12-30T06:40:22.131Z,0
2023-12-30T06:42:16.359Z,0
2023-12-30T06:43:16.380Z,0
2023-12-30T06:44:16.322Z,0
2023-12-30T06:45:16.339Z,0
2023-12-30T06:47:16.355Z,0
2023-12-30T06:48:16.331Z,0
2023-12-30T06:49:16.672Z,0
2023-12-30T06:51:16.318Z,0
2023-12-30T06:52:16.347Z,0
2023-12-30T06:53:16.314Z,0
2023-12-30T06:54:16.323Z,0
2023-12-30T06:55:20.444Z,0
2023-12-30T06:56:16.352Z,0
2023-12-30T06:57:16.318Z,0
2023-12-30T06:58:16.337Z,0
2023-12-30T06:59:16.315Z,0
2023-12-30T07:00:19.148Z,0
2023-12-30T07:01:22.246Z,0
2023-12-30T07:03:16.363Z,0
2023-12-30T07:04:16.341Z,0
2023-12-30T07:05:16.333Z,0
2023-12-30T07:06:16.315Z,0
2023-12-30T07:07:16.400Z,0
2023-12-30T07:08:16.342Z,0
2023-12-30T07:09:16.329Z,0
2023-12-30T07:10:16.761Z,0
2023-12-30T07:12:16.319Z,0
2023-12-30T07:13:16.375Z,0
2023-12-30T07:15:16.387Z,0
2023-12-30T07:16:16.348Z,0
2023-12-30T07:17:16.326Z,0
2023-12-30T07:18:16.446Z,0
2023-12-30T07:19:16.712Z,0
2023-12-30T07:21:20.971Z,0
2023-12-30T07:22:22.236Z,0
2023-12-30T07:24:16.325Z,0
2023-12-30T07:25:16.382Z,0
2023-12-30T07:26:16.398Z,0
2023-12-30T07:27:16.336Z,0
2023-12-30T07:28:16.361Z,0
2023-12-30T07:30:16.398Z,0
2023-12-30T07:31:16.683Z,0
2023-12-30T07:33:16.358Z,0
2023-12-30T07:34:16.488Z,0
2023-12-30T07:36:16.493Z,0
2023-12-30T07:38:16.584Z,0
2023-12-30T07:39:16.671Z,0
2023-12-30T07:40:16.743Z,0
2023-12-30T07:42:22.680Z,0
2023-12-30T07:43:22.346Z,0
2023-12-30T07:45:16.332Z,0
2023-12-30T07:46:16.356Z,0
2023-12-30T07:47:16.352Z,0
2023-12-30T07:49:16.400Z,0
2023-12-30T07:50:16.326Z,0
2023-12-30T07:51:16.339Z,0
2023-12-30T07:53:16.316Z,0
2023-12-30T07:54:16.330Z,0
2023-12-30T07:55:16.354Z,0
2023-12-30T07:56:16.323Z,0
2023-12-30T07:57:16.321Z,0
2023-12-30T07:58:16.353Z,0
2023-12-30T08:00:16.342Z,0
2023-12-30T08:02:16.381Z,0
2023-12-30T08:03:19.518Z,0
2023-12-30T08:04:22.484Z,0
2023-12-30T08:06:16.373Z,0
2023-12-30T08:07:16.344Z,0
2023-12-30T08:08:16.320Z,0
2023-12-30T08:09:16.330Z,0
2023-12-30T08:10:16.400Z,0
2023-12-30T08:11:16.321Z,0
2023-12-30T08:13:16.368Z,0
2023-12-30T08:14:16.331Z,0
2023-12-30T08:15:16.324Z,0
2023-12-30T08:16:16.357Z,0
2023-12-30T08:17:16.382Z,0
2023-12-30T08:18:16.470Z,0
2023-12-30T08:19:16.348Z,0
2023-12-30T08:20:16.352Z,0
2023-12-30T08:22:16.330Z,0
2023-12-30T08:23:16.628Z,0
2023-12-30T08:24:19.555Z,0
2023-12-30T08:25:22.625Z,0
2023-12-30T08:27:16.444Z,0
2023-12-30T08:28:16.341Z,0
2023-12-30T08:29:16.351Z,0
2023-12-30T08:30:16.353Z,0
2023-12-30T08:31:16.353Z,0
2023-12-30T08:32:16.319Z,0
2023-12-30T08:33:16.400Z,0
2023-12-30T08:34:16.595Z,0
2023-12-30T08:35:16.337Z,0
2023-12-30T08:36:16.322Z,0
2023-12-30T08:37:16.331Z,0
2023-12-30T08:38:16.330Z,0
2023-12-30T08:40:16.401Z,0
2023-12-30T08:41:16.334Z,0
2023-12-30T08:42:16.326Z,0
2023-12-30T08:43:16.348Z,0
2023-12-30T08:44:16.631Z,0
2023-12-30T08:45:20.025Z,0
2023-12-30T08:46:22.823Z,0
2023-12-30T08:48:16.571Z,0
2023-12-30T08:49:16.458Z,0
2023-12-30T08:50:16.325Z,0
2023-12-30T08:51:16.323Z,0
2023-12-30T08:52:16.350Z,0
2023-12-30T08:53:16.325Z,0
2023-12-30T08:54:16.326Z,0
2023-12-30T08:55:16.406Z,0
2023-12-30T08:56:16.332Z,0
2023-12-30T08:57:16.335Z,0
2023-12-30T08:58:16.375Z,0
2023-12-30T08:59:16.330Z,0
2023-12-30T09:00:16.322Z,0
2023-12-30T09:01:16.379Z,0
2023-12-30T09:02:16.352Z,0
2023-12-30T09:03:17.820Z,0
2023-12-30T09:04:16.407Z,0
2023-12-30T09:05:16.622Z,0
2023-12-30T09:06:19.788Z,0
2023-12-30T09:07:22.873Z,0
2023-12-30T09:09:16.631Z,0
2023-12-30T09:11:16.682Z,0
2023-12-30T09:12:16.356Z,0
2023-12-30T09:14:16.329Z,0
2023-12-30T09:15:16.331Z,0
2023-12-30T09:16:16.376Z,0
2023-12-30T09:17:16.360Z,0
2023-12-30T09:18:16.712Z,0
2023-12-30T09:20:16.381Z,0
2023-12-30T09:21:16.347Z,0
2023-12-30T09:23:16.336Z,0
2023-12-30T09:24:16.331Z,0
2023-12-30T09:25:16.384Z,0
2023-12-30T09:26:16.761Z,0
2023-12-30T09:27:19.845Z,0
2023-12-30T09:28:22.982Z,0
2023-12-30T09:30:16.758Z,0
2023-12-30T09:32:16.330Z,0
2023-12-30T09:33:16.387Z,0
2023-12-30T09:34:23.461Z,0
2023-12-30T09:36:16.326Z,0
2023-12-30T09:37:16.405Z,0
2023-12-30T09:38:16.339Z,0
2023-12-30T09:39:16.347Z,0
2023-12-30T09:41:16.453Z,0
2023-12-30T09:43:16.388Z,0
2023-12-30T09:44:16.364Z,0
2023-12-30T09:45:16.340Z,0
2023-12-30T09:46:16.386Z,0
2023-12-30T09:48:17.150Z,0
2023-12-30T09:49:20.525Z,0
2023-12-30T09:50:23.189Z,0
2023-12-30T09:51:16.319Z,0
2023-12-30T09:52:16.354Z,0
2023-12-30T09:53:16.331Z,0
2023-12-30T09:54:16.356Z,0
2023-12-30T09:56:16.334Z,0
2023-12-30T09:57:16.337Z,0
2023-12-30T09:58:16.391Z,0
2023-12-30T09:59:16.349Z,0
2023-12-30T10:01:16.379Z,0
2023-12-30T10:02:16.468Z,0
2023-12-30T10:04:16.367Z,0
2023-12-30T10:06:16.335Z,0
2023-12-30T10:07:16.331Z,0
2023-12-30T10:08:16.388Z,0
2023-12-30T10:09:17.163Z,0
2023-12-30T10:10:20.541Z,0
2023-12-30T10:11:23.224Z,0
2023-12-30T10:13:16.343Z,0
2023-12-30T10:14:16.359Z,0
2023-12-30T10:16:16.383Z,0
2023-12-30T10:17:16.322Z,0
2023-12-30T10:18:16.393Z,0
2023-12-30T10:19:16.424Z,0
2023-12-30T10:21:16.333Z,0
2023-12-30T10:22:16.365Z,0
2023-12-30T10:23:16.585Z,0
2023-12-30T10:25:16.368Z,0
2023-12-30T10:26:16.326Z,0
2023-12-30T10:27:16.324Z,0
2023-12-30T10:28:16.329Z,0
2023-12-30T10:29:16.347Z,0
2023-12-30T10:30:17.226Z,0
2023-12-30T10:31:20.356Z,0
2023-12-30T10:32:23.835Z,0
2023-12-30T10:34:16.415Z,0
2023-12-30T10:35:16.339Z,0
2023-12-30T10:36:16.340Z,0
2023-12-30T10:37:16.349Z,0
2023-12-30T10:38:16.333Z,0
2023-12-30T10:39:16.324Z,0
2023-12-30T10:40:16.370Z,0
2023-12-30T10:42:16.352Z,0
2023-12-30T10:43:16.357Z,0
2023-12-30T10:44:16.630Z,0
2023-12-30T10:45:16.331Z,0
2023-12-30T10:46:16.358Z,0
2023-12-30T10:47:16.324Z,0
2023-12-30T10:49:16.447Z,0
2023-12-30T10:50:16.441Z,0
2023-12-30T10:51:17.328Z,0
2023-12-30T10:52:20.553Z,0
2023-12-30T10:53:23.391Z,0
2023-12-30T10:55:16.406Z,0
2023-12-30T10:56:16.326Z,0
2023-12-30T10:58:16.372Z,0
2023-12-30T10:59:16.331Z,0
2023-12-30T11:00:16.477Z,0
2023-12-30T11:01:16.526Z,0
2023-12-30T11:02:16.620Z,0
2023-12-30T11:04:16.574Z,0
2023-12-30T11:05:16.726Z,0
2023-12-30T11:07:16.386Z,0
2023-12-30T11:08:16.325Z,0
2023-12-30T11:09:16.344Z,0
2023-12-30T11:10:16.358Z,0
2023-12-30T11:11:16.341Z,0
2023-12-30T11:12:17.436Z,0
2023-12-30T11:13:20.604Z,0
2023-12-30T11:14:23.504Z,0
2023-12-30T11:16:16.373Z,0
2023-12-30T11:18:16.515Z,0
2023-12-30T11:20:16.319Z,0
2023-12-30T11:21:16.335Z,0
2023-12-30T11:22:16.336Z,0
2023-12-30T11:23:16.333Z,0
2023-12-30T11:24:16.336Z,0
2023-12-30T11:25:16.367Z,0
2023-12-30T11:26:16.320Z,0
2023-12-30T11:27:16.323Z,0
2023-12-30T11:28:16.364Z,0
2023-12-30T11:29:16.369Z,0
2023-12-30T11:31:16.366Z,0
2023-12-30T11:32:16.322Z,0
2023-12-30T11:33:17.493Z,0
2023-12-30T11:34:20.831Z,0
2023-12-30T11:35:23.542Z,0
2023-12-30T11:37:16.342Z,0
2023-12-30T11:38:16.324Z,0
2023-12-30T11:39:16.329Z,0
2023-12-30T11:40:16.332Z,0
2023-12-30T11:41:16.346Z,0
2023-12-30T11:43:16.357Z,0
2023-12-30T11:44:16.421Z,0
2023-12-30T11:45:16.339Z,0
2023-12-30T11:46:16.365Z,0
2023-12-30T11:48:16.409Z,0
2023-12-30T11:49:16.463Z,0
2023-12-30T11:50:16.338Z,0
2023-12-30T11:51:16.337Z,0
2023-12-30T11:52:16.379Z,0
2023-12-30T11:53:16.332Z,0
2023-12-30T11:54:17.622Z,0
2023-12-30T11:55:20.705Z,0
2023-12-30T11:56:23.616Z,0
2023-12-30T11:58:16.373Z,0
2023-12-30T11:59:16.788Z,0
2023-12-30T12:01:16.374Z,0
2023-12-30T12:02:16.759Z,0
2023-12-30T12:04:16.370Z,0
2023-12-30T12:05:16.402Z,0
2023-12-30T12:07:16.341Z,0
2023-12-30T12:08:16.422Z,0
2023-12-30T12:10:16.377Z,0
2023-12-30T12:11:16.331Z,0
2023-12-30T12:12:16.322Z,0
2023-12-30T12:13:16.357Z,0
2023-12-30T12:14:16.331Z,0
2023-12-30T12:15:17.633Z,0
2023-12-30T12:16:20.819Z,0
2023-12-30T12:18:16.379Z,0
2023-12-30T12:19:16.362Z,0
2023-12-30T12:20:17.470Z,0
2023-12-30T12:22:16.490Z,0
2023-12-30T12:24:16.347Z,0
2023-12-30T12:25:16.386Z,0
2023-12-30T12:26:16.341Z,0
2023-12-30T12:28:16.374Z,0
2023-12-30T12:29:16.327Z,0
2023-12-30T12:30:16.324Z,0
2023-12-30T12:31:16.336Z,0
2023-12-30T12:32:16.341Z,0
2023-12-30T12:33:16.518Z,0
2023-12-30T12:35:16.435Z,0
2023-12-30T12:36:17.729Z,0
2023-12-30T12:37:20.868Z,0
2023-12-30T12:39:16.323Z,0
2023-12-30T12:40:16.349Z,0
2023-12-30T12:41:16.356Z,0
2023-12-30T12:42:23.176Z,0
2023-12-30T12:43:16.577Z,0
2023-12-30T12:44:16.343Z,0
2023-12-30T12:45:16.313Z,0
2023-12-30T12:46:16.390Z,0
2023-12-30T12:47:16.334Z,0
2023-12-30T12:49:16.404Z,0
2023-12-30T12:50:16.329Z,0
2023-12-30T12:51:16.338Z,0
2023-12-30T12:52:16.369Z,0
2023-12-30T12:53:16.342Z,0
2023-12-30T12:55:16.375Z,0
2023-12-30T12:56:16.332Z,0
2023-12-30T12:57:17.960Z,0
2023-12-30T12:58:20.981Z,0
2023-12-30T13:00:16.423Z,0
2023-12-30T13:01:16.381Z,0
2023-12-30T13:02:16.355Z,0
2023-12-30T13:04:16.827Z,0
2023-12-30T13:05:16.325Z,0
2023-12-30T13:06:16.417Z,0
2023-12-30T13:08:16.322Z,0
2023-12-30T13:09:16.327Z,0
2023-12-30T13:10:16.335Z,0
2023-12-30T13:11:16.324Z,0
2023-12-30T13:12:16.330Z,0
2023-12-30T13:13:16.365Z,0
2023-12-30T13:15:16.320Z,0
2023-12-30T13:16:16.351Z,0
2023-12-30T13:17:16.332Z,0
2023-12-30T13:18:18.101Z,0
2023-12-30T13:19:21.158Z,0
2023-12-30T13:21:16.343Z,0
2023-12-30T13:22:16.348Z,0
2023-12-30T13:24:16.332Z,0
2023-12-30T13:25:16.757Z,0
2023-12-30T13:27:16.327Z,0
2023-12-30T13:28:16.369Z,0
2023-12-30T13:29:16.328Z,0
2023-12-30T13:30:16.344Z,0
2023-12-30T13:31:16.431Z,0
2023-12-30T13:33:16.363Z,0
2023-12-30T13:34:16.331Z,0
2023-12-30T13:35:16.313Z,0
2023-12-30T13:36:16.354Z,0
2023-12-30T13:37:16.316Z,0
2023-12-30T13:38:16.326Z,0
2023-12-30T13:39:18.673Z,0
2023-12-30T13:40:21.091Z,0
2023-12-30T13:42:16.334Z,0
2023-12-30T13:43:16.326Z,0
2023-12-30T13:44:16.327Z,2392.5
2023-12-30T13:45:16.334Z,2400
2023-12-30T13:46:16.365Z,2385
2023-12-30T13:48:16.361Z,2387.5
2023-12-30T13:49:16.353Z,2505
2023-12-30T13:50:16.323Z,2744.17
2023-12-30T13:51:16.342Z,2866.67
2023-12-30T13:53:16.316Z,3875.83
2023-12-30T13:54:16.368Z,4415.83
2023-12-30T13:55:16.434Z,4199.17
2023-12-30T13:56:16.700Z,4288.33
2023-12-30T13:57:16.364Z,4150.83
2023-12-30T13:58:16.343Z,3850
2023-12-30T13:59:16.316Z,3391.67
2023-12-30T14:00:18.192Z,2820
2023-12-30T14:01:21.387Z,2520
2023-12-30T14:03:16.399Z,2558.33
2023-12-30T14:04:16.343Z,2391.67
2023-12-30T14:05:16.406Z,2244.17
2023-12-30T14:06:16.443Z,2050.83
2023-12-30T14:08:16.330Z,2885.83
2023-12-30T14:10:16.353Z,2485
2023-12-30T14:11:16.339Z,3083.33
2023-12-30T14:12:16.320Z,2525
2023-12-30T14:13:16.416Z,2781.67
2023-12-30T14:15:16.423Z,3271.67
2023-12-30T14:17:16.465Z,3938.33
2023-12-30T14:19:16.698Z,3442.5
2023-12-30T14:20:16.602Z,2935
2023-12-30T14:21:18.395Z,2747.5
2023-12-30T14:22:21.363Z,2722.5
2023-12-30T14:24:16.704Z,2980.83
2023-12-30T14:25:16.787Z,3420
2023-12-30T14:27:16.647Z,3899.17
2023-12-30T14:28:17.157Z,3905
2023-12-30T14:30:16.330Z,3420
2023-12-30T14:31:16.369Z,3196.67
2023-12-30T14:32:16.321Z,3120
2023-12-30T14:33:16.481Z,2945
2023-12-30T14:34:16.481Z,2694.17
2023-12-30T14:35:16.328Z,2637.5
2023-12-30T14:36:16.336Z,2452.5
2023-12-30T14:38:16.331Z,2151.67
2023-12-30T14:39:16.348Z,2043.33
2023-12-30T14:40:16.372Z,1948.33
2023-12-30T14:41:16.335Z,1880.83
2023-12-30T14:43:16.717Z,1813.33
2023-12-30T14:44:19.761Z,1778.33
2023-12-30T14:45:22.653Z,1710
2023-12-30T14:47:16.591Z,1546.67
2023-12-30T14:48:16.427Z,1527.5
2023-12-30T14:49:16.433Z,1473.33
2023-12-30T14:50:16.336Z,1406.67
2023-12-30T14:52:16.364Z,1375.83
2023-12-30T14:54:16.328Z,1305
2023-12-30T14:55:16.345Z,1232.5
2023-12-30T14:56:16.341Z,1189.17
2023-12-30T14:57:16.356Z,1153.33
2023-12-30T14:59:16.328Z,1029.17
2023-12-30T15:00:16.317Z,937.5
2023-12-30T15:01:16.396Z,858.33
2023-12-30T15:02:16.397Z,788.33
2023-12-30T15:04:16.763Z,749.17
2023-12-30T15:05:20.119Z,711.67
2023-12-30T15:06:24.334Z,646.67
2023-12-30T15:08:16.639Z,555
2023-12-30T15:10:16.672Z,520
2023-12-30T15:11:16.350Z,488.33
2023-12-30T15:12:16.361Z,453.33
2023-12-30T15:14:16.331Z,380
2023-12-30T15:15:16.333Z,370
2023-12-30T15:16:16.356Z,343.33
2023-12-30T15:17:16.385Z,325.83
2023-12-30T15:18:16.381Z,294.17
2023-12-30T15:19:16.376Z,272.5
2023-12-30T15:21:16.360Z,220
2023-12-30T15:22:16.377Z,203.33
2023-12-30T15:24:16.350Z,170
2023-12-30T15:25:18.031Z,156.67
2023-12-30T15:26:19.839Z,140.83
2023-12-30T15:27:22.769Z,130
2023-12-30T15:29:16.656Z,110
2023-12-30T15:31:16.494Z,94.17
2023-12-30T15:32:16.392Z,86.67
2023-12-30T15:33:16.455Z,79.17
2023-12-30T15:35:16.360Z,65.83
2023-12-30T15:37:16.339Z,53.33
2023-12-30T15:39:16.350Z,42.5
2023-12-30T15:40:16.360Z,38.33
2023-12-30T15:42:16.338Z,29.17
2023-12-30T15:44:16.337Z,22.5
2023-12-30T15:45:16.326Z,20
2023-12-30T15:46:16.949Z,17.5
2023-12-30T15:47:20.081Z,15.83
2023-12-30T15:48:23.461Z,14.17
2023-12-30T15:50:16.550Z,2.76
2023-12-30T15:52:16.324Z,7.36
2023-12-30T15:53:16.334Z,6.21
2023-12-30T15:54:16.338Z,5.06
2023-12-30T15:56:16.339Z,3.45
2023-12-30T15:57:16.343Z,2.99
2023-12-30T15:58:16.382Z,2.53
2023-12-30T15:59:16.328Z,2.07
2023-12-30T16:00:16.333Z,1.84
2023-12-30T16:01:16.400Z,1.61
2023-12-30T16:02:16.342Z,1.38
2023-12-30T16:03:16.756Z,1.15
2023-12-30T16:04:16.365Z,0.92
2023-12-30T16:06:16.348Z,0.69
2023-12-30T16:07:16.688Z,0.46
2023-12-30T16:08:19.539Z,0.46
2023-12-30T16:09:22.974Z,0.23
2023-12-30T16:11:16.313Z,0.23
2023-12-30T16:12:16.327Z,0.23
2023-12-30T16:13:16.325Z,0
2023-12-30T16:14:16.340Z,0
2023-12-30T16:15:16.333Z,0
2023-12-30T16:16:16.375Z,0
2023-12-30T16:17:16.326Z,0
2023-12-30T16:18:16.472Z,0
2023-12-30T16:19:16.468Z,0
2023-12-30T16:20:16.453Z,0
2023-12-30T16:21:16.465Z,0
2023-12-30T16:23:16.331Z,0
2023-12-30T16:25:16.378Z,0
2023-12-30T16:26:16.353Z,0
2023-12-30T16:27:16.329Z,0
2023-12-30T16:28:17.118Z,0
2023-12-30T16:29:20.195Z,0
2023-12-30T16:30:23.198Z,0
2023-12-30T16:32:16.322Z,0
2023-12-30T16:33:16.397Z,0
2023-12-30T16:34:16.435Z,0
2023-12-30T16:35:16.399Z,0
2023-12-30T16:36:16.328Z,0
2023-12-30T16:38:16.326Z,0
2023-12-30T16:39:16.445Z,0
2023-12-30T16:41:16.317Z,0
2023-12-30T16:42:16.534Z,0
2023-12-30T16:44:16.342Z,0
2023-12-30T16:45:16.326Z,0
2023-12-30T16:47:16.333Z,0
2023-12-30T16:48:16.405Z,0
2023-12-30T16:49:17.433Z,0
2023-12-30T16:50:20.249Z,0
2023-12-30T16:51:23.417Z,0
2023-12-30T16:53:16.322Z,0
2023-12-30T16:54:16.348Z,0
2023-12-30T16:56:16.325Z,0
2023-12-30T16:57:16.329Z,0
2023-12-30T16:58:16.326Z,0
2023-12-30T16:59:16.332Z,0
2023-12-30T17:01:16.343Z,0
2023-12-30T17:03:16.678Z,0
2023-12-30T17:05:16.345Z,0
2023-12-30T17:06:16.317Z,0
2023-12-30T17:07:16.361Z,0
2023-12-30T17:08:16.329Z,0
2023-12-30T17:09:16.321Z,0
2023-12-30T17:10:17.309Z,0
2023-12-30T17:11:20.548Z,0
2023-12-30T17:12:23.297Z,0
2023-12-30T17:14:16.399Z,0
2023-12-30T17:15:16.669Z,0
2023-12-30T17:17:16.339Z,0
2023-12-30T17:18:16.338Z,0
2023-12-30T17:19:16.371Z,0
2023-12-30T17:21:16.321Z,0
2023-12-30T17:22:16.356Z,0
2023-12-30T17:23:16.320Z,0
2023-12-30T17:24:16.713Z,0
2023-12-30T17:25:16.401Z,0
2023-12-30T17:26:16.337Z,0
2023-12-30T17:27:16.325Z,0
2023-12-30T17:28:16.377Z,0
2023-12-30T17:29:16.318Z,0
2023-12-30T17:30:16.359Z,0
2023-12-30T17:31:17.236Z,0
2023-12-30T17:32:21.761Z,0
2023-12-30T17:33:23.284Z,0
2023-12-30T17:34:16.408Z,0
2023-12-30T17:35:16.330Z,0
2023-12-30T17:36:16.322Z,0
2023-12-30T17:38:16.386Z,0
2023-12-30T17:39:16.329Z,0
2023-12-30T17:40:16.352Z,0
2023-12-30T17:42:16.329Z,0
2023-12-30T17:43:16.325Z,0
2023-12-30T17:44:16.396Z,0
2023-12-30T17:46:16.334Z,0
2023-12-30T17:47:16.314Z,0
2023-12-30T17:48:16.425Z,0
2023-12-30T17:50:16.322Z,0
2023-12-30T17:51:16.332Z,0
2023-12-30T17:52:17.333Z,0
2023-12-30T17:53:20.493Z,0
2023-12-30T17:54:23.351Z,0
2023-12-30T17:56:16.320Z,0
2023-12-30T17:57:16.346Z,0
2023-12-30T17:58:16.349Z,0
2023-12-30T18:00:16.317Z,0
2023-12-30T18:01:16.362Z,0
2023-12-30T18:03:16.342Z,0
2023-12-30T18:04:16.380Z,0
2023-12-30T18:05:16.380Z,0
2023-12-30T18:06:16.355Z,0